Time;durP1;ratioP1;P1;durP2;ratioP2;P2;SDS_P1;SDS_P2;PMS_P1;PMS_P2;Temp;Humidity;BMP_temperature;BMP_pressure;BME280_temperature;BME280_humidity;BME280_pressure;Samples;Min_cycle;Max_cycle;Signal;HPM_P1;HPM_P2
2021/10/27 00:01:17;;;;;;;;;;;11.20;99.90;;;;;;6183054;23;19907;-86
2021/10/27 00:03:43;;;;;;;;;;;11.20;99.90;;;;;;6183221;23;20229;-87
2021/10/27 00:06:09;;;;;;;;;;;11.20;99.90;;;;;;6183046;23;20373;-86
2021/10/27 00:08:34;;;;;;;;;;;11.10;99.90;;;;;;6182832;23;20326;-86
2021/10/27 00:11:00;;;;;;;;;;;11.10;99.90;;;;;;6182564;23;19931;-86
2021/10/27 00:13:25;;;;;;;;;;;11.10;99.90;;;;;;6183054;23;20280;-86
2021/10/27 00:15:51;;;;;;;;;;;11.10;99.90;;;;;;6183161;23;20380;-87
2021/10/27 00:18:17;;;;;;;;;;;11.00;99.90;;;;;;6156484;23;19900;-86
2021/10/27 00:20:43;;;;;;;;;;;11.00;99.90;;;;;;6156499;23;19946;-86
2021/10/27 00:23:08;;;;;;;;;;;11.00;99.90;;;;;;6182959;23;19900;-86
2021/10/27 00:25:34;;;;;;;;;;;11.00;99.90;;;;;;6156385;23;19920;-87
2021/10/27 00:28:00;;;;;;;;;;;11.00;99.90;;;;;;6182871;23;19900;-86
2021/10/27 00:30:25;;;;;;;;;;;11.00;99.90;;;;;;6182842;23;20337;-87
2021/10/27 00:32:51;;;;;;;;;;;11.00;99.90;;;;;;6155893;23;20349;-86
2021/10/27 00:35:16;;;;;;;;;;;11.00;99.90;;;;;;6182672;23;19954;-86
2021/10/27 00:37:42;;;;;;;;;;;10.90;99.90;;;;;;6156346;23;20364;-86
2021/10/27 00:40:08;;;;;;;;;;;10.90;99.90;;;;;;6157201;23;20326;-86
2021/10/27 00:42:33;;;;;;;;;;;10.90;99.90;;;;;;6157936;23;19904;-86
2021/10/27 00:44:59;;;;;;;;;;;10.90;99.90;;;;;;6184828;23;19995;-86
2021/10/27 00:47:25;;;;;;;;;;;10.90;99.90;;;;;;6158550;23;19928;-86
2021/10/27 00:49:50;;;;;;;;;;;10.80;99.90;;;;;;6184813;23;19916;-86
2021/10/27 00:52:17;;;;;;;;;;;10.90;99.90;;;;;;6184529;23;19904;-86
2021/10/27 00:54:44;;;;;;;;;;;10.90;99.90;;;;;;6184310;23;19900;-86
2021/10/27 00:57:11;;;;;;;;;;;10.90;99.90;;;;;;6184683;23;20321;-86
2021/10/27 00:59:40;;;;;;;;;;;10.80;99.90;;;;;;6184357;23;20401;-86
2021/10/27 01:02:06;;;;;;;;;;;10.80;99.90;;;;;;6184529;23;19904;-86
2021/10/27 01:04:32;;;;;;;;;;;10.80;99.90;;;;;;6184700;23;19922;-86
2021/10/27 01:06:58;;;;;;;;;;;10.80;99.90;;;;;;6158710;23;19900;-87
2021/10/27 01:09:23;;;;;;;;;;;10.80;99.90;;;;;;6158207;23;19943;-86
2021/10/27 01:11:49;;;;;;;;;;;10.80;99.90;;;;;;6184738;23;20381;-86
2021/10/27 01:14:15;;;;;;;;;;;10.80;99.90;;;;;;6158241;23;20363;-86
2021/10/27 01:16:41;;;;;;;;;;;10.80;99.90;;;;;;6184074;23;20348;-86
2021/10/27 01:19:07;;;;;;;;;;;10.80;99.90;;;;;;6184132;23;19900;-86
2021/10/27 01:21:33;;;;;;;;;;;10.70;99.90;;;;;;6183817;23;19932;-86
2021/10/27 01:23:58;;;;;;;;;;;10.70;99.90;;;;;;6183880;23;20375;-86
2021/10/27 01:26:25;;;;;;;;;;;10.70;99.90;;;;;;6183988;23;19987;-86
2021/10/27 01:28:50;;;;;;;;;;;10.60;99.90;;;;;;6183561;23;19963;-87
2021/10/27 01:31:16;;;;;;;;;;;10.60;99.90;;;;;;6156967;23;19911;-86
2021/10/27 01:33:42;;;;;;;;;;;10.60;99.90;;;;;;6183615;23;19901;-86
2021/10/27 01:36:08;;;;;;;;;;;10.60;99.90;;;;;;6157378;23;20288;-86
2021/10/27 01:38:34;;;;;;;;;;;10.50;99.90;;;;;;6157441;23;19974;-86
2021/10/27 01:41:00;;;;;;;;;;;10.50;99.90;;;;;;6157393;23;20229;-86
2021/10/27 01:43:25;;;;;;;;;;;10.50;99.90;;;;;;6183820;23;19923;-86
2021/10/27 01:45:51;;;;;;;;;;;10.60;99.90;;;;;;6157411;23;19976;-86
2021/10/27 01:48:17;;;;;;;;;;;10.50;99.90;;;;;;6183512;23;19911;-87
2021/10/27 01:50:43;;;;;;;;;;;10.50;99.90;;;;;;6183805;23;19900;-86
2021/10/27 01:53:08;;;;;;;;;;;10.50;99.90;;;;;;6183677;23;19920;-87
2021/10/27 01:55:34;;;;;;;;;;;10.50;99.90;;;;;;6183576;23;19900;-87
2021/10/27 01:58:00;;;;;;;;;;;10.50;99.90;;;;;;6183532;23;19928;-86
2021/10/27 02:00:25;;;;;;;;;;;10.50;99.90;;;;;;6183662;23;20301;-86
2021/10/27 02:02:51;;;;;;;;;;;10.50;99.90;;;;;;6183218;23;20310;-87
2021/10/27 02:05:17;;;;;;;;;;;10.50;99.90;;;;;;6183947;23;19939;-86
2021/10/27 02:07:42;;;;;;;;;;;10.50;99.90;;;;;;6183909;23;19970;-87
2021/10/27 02:10:09;;;;;;;;;;;10.50;99.90;;;;;;6183981;23;19916;-86
2021/10/27 02:12:35;;;;;;;;;;;10.40;99.90;;;;;;6156838;23;20452;-87
2021/10/27 02:15:01;;;;;;;;;;;10.40;99.90;;;;;;6183900;23;19947;-87
2021/10/27 02:17:27;;;;;;;;;;;10.40;99.90;;;;;;6184069;23;19900;-86
2021/10/27 02:19:52;;;;;;;;;;;10.40;99.90;;;;;;6183393;23;19900;-86
2021/10/27 02:22:18;;;;;;;;;;;10.30;99.90;;;;;;6184024;23;19979;-87
2021/10/27 02:24:43;;;;;;;;;;;10.30;99.90;;;;;;6184109;23;19924;-86
2021/10/27 02:27:09;;;;;;;;;;;10.30;99.90;;;;;;6157158;23;19919;-86
2021/10/27 02:29:35;;;;;;;;;;;10.30;99.90;;;;;;6157108;23;19908;-86
2021/10/27 02:32:01;;;;;;;;;;;10.30;99.90;;;;;;6157383;23;19927;-87
2021/10/27 02:34:27;;;;;;;;;;;10.30;99.90;;;;;;6183832;23;19900;-88
2021/10/27 02:36:52;;;;;;;;;;;10.30;99.90;;;;;;6182837;23;20234;-88
2021/10/27 02:39:18;;;;;;;;;;;10.30;99.90;;;;;;6157372;23;20305;-87
2021/10/27 02:41:43;;;;;;;;;;;10.30;99.90;;;;;;6187365;23;19900;-87
2021/10/27 02:44:09;;;;;;;;;;;10.30;99.90;;;;;;6157006;23;19907;-87
2021/10/27 02:46:34;;;;;;;;;;;10.20;99.90;;;;;;6184051;23;19900;-86
2021/10/27 02:49:00;;;;;;;;;;;10.20;99.90;;;;;;6182977;23;19939;-87
2021/10/27 02:51:26;;;;;;;;;;;10.10;99.90;;;;;;6183123;23;19963;-86
2021/10/27 02:53:51;;;;;;;;;;;10.20;99.90;;;;;;6183092;23;19908;-86
2021/10/27 02:56:17;;;;;;;;;;;10.20;99.90;;;;;;6157294;23;19975;-85
2021/10/27 02:58:42;;;;;;;;;;;10.10;99.90;;;;;;6182984;23;20374;-86
2021/10/27 03:01:08;;;;;;;;;;;10.10;99.90;;;;;;6183350;23;20233;-86
2021/10/27 03:03:33;;;;;;;;;;;10.10;99.90;;;;;;6182858;23;20310;-87
2021/10/27 03:05:59;;;;;;;;;;;10.00;99.90;;;;;;6182765;23;19927;-86
2021/10/27 03:08:25;;;;;;;;;;;10.00;99.90;;;;;;6183044;23;19904;-86
2021/10/27 03:10:50;;;;;;;;;;;10.00;99.90;;;;;;6182367;23;19946;-86
2021/10/27 03:13:16;;;;;;;;;;;10.00;99.90;;;;;;6182616;23;19900;-87
2021/10/27 03:15:41;;;;;;;;;;;10.00;99.90;;;;;;6183071;23;19907;-86
2021/10/27 03:18:07;;;;;;;;;;;10.00;99.90;;;;;;6182733;23;20325;-86
2021/10/27 03:20:33;;;;;;;;;;;9.90;99.90;;;;;;6182784;23;19900;-86
2021/10/27 03:22:58;;;;;;;;;;;10.00;99.90;;;;;;6155974;23;19907;-86
2021/10/27 03:25:24;;;;;;;;;;;10.00;99.90;;;;;;6182821;23;19983;-87
2021/10/27 03:27:49;;;;;;;;;;;9.90;99.90;;;;;;6156232;23;20329;-86
2021/10/27 03:30:15;;;;;;;;;;;9.90;99.90;;;;;;6182661;23;19909;-86
2021/10/27 03:32:40;;;;;;;;;;;9.90;99.90;;;;;;6183385;23;19933;-86
2021/10/27 03:35:06;;;;;;;;;;;9.80;99.90;;;;;;6183475;23;19911;-87
2021/10/27 03:37:32;;;;;;;;;;;9.80;99.90;;;;;;6183430;23;19900;-86
2021/10/27 03:39:57;;;;;;;;;;;9.80;99.90;;;;;;6183560;23;19907;-86
2021/10/27 03:42:24;;;;;;;;;;;9.80;99.90;;;;;;6187345;23;19900;-86
2021/10/27 03:44:49;;;;;;;;;;;9.80;99.90;;;;;;6183296;23;19954;-86
2021/10/27 03:47:15;;;;;;;;;;;9.80;99.90;;;;;;6183149;23;19926;-87
2021/10/27 03:49:40;;;;;;;;;;;9.80;99.90;;;;;;6156285;23;19912;-87
2021/10/27 03:52:06;;;;;;;;;;;9.80;99.90;;;;;;6156247;23;20314;-86
2021/10/27 03:54:32;;;;;;;;;;;9.80;99.90;;;;;;6182461;23;19900;-87
2021/10/27 03:56:57;;;;;;;;;;;9.80;99.90;;;;;;6182314;23;19923;-86
2021/10/27 03:59:23;;;;;;;;;;;9.80;99.90;;;;;;6156007;23;19901;-86
2021/10/27 04:01:48;;;;;;;;;;;9.80;99.90;;;;;;6187464;23;19901;-86
2021/10/27 04:04:14;;;;;;;;;;;9.70;99.90;;;;;;6170761;23;19900;-88
2021/10/27 04:06:39;;;;;;;;;;;9.70;99.90;;;;;;6195217;23;19928;-87
2021/10/27 04:09:05;;;;;;;;;;;9.70;99.90;;;;;;6194903;23;19915;-87
2021/10/27 04:11:30;;;;;;;;;;;9.70;99.90;;;;;;6192543;23;19900;-87
2021/10/27 04:13:56;;;;;;;;;;;9.70;99.90;;;;;;6211922;23;19950;-86
2021/10/27 04:16:22;;;;;;;;;;;9.70;99.90;;;;;;6205930;23;19904;-86
2021/10/27 04:18:47;;;;;;;;;;;9.60;99.90;;;;;;6184554;23;19900;-87
2021/10/27 04:21:13;;;;;;;;;;;9.70;99.90;;;;;;6184535;23;19900;-86
2021/10/27 04:23:38;;;;;;;;;;;9.70;99.90;;;;;;6184450;23;19900;-87
2021/10/27 04:26:04;;;;;;;;;;;9.70;99.90;;;;;;6184245;23;19994;-86
2021/10/27 04:28:30;;;;;;;;;;;9.60;99.90;;;;;;6183928;23;19908;-86
2021/10/27 04:30:56;;;;;;;;;;;9.70;99.90;;;;;;6184726;23;19924;-86
2021/10/27 04:33:23;;;;;;;;;;;9.70;99.90;;;;;;6182437;23;19916;-86
2021/10/27 04:35:49;;;;;;;;;;;9.70;99.90;;;;;;6208101;23;19920;-86
2021/10/27 04:38:16;;;;;;;;;;;9.60;99.90;;;;;;6166605;23;20207;-87
2021/10/27 04:40:43;;;;;;;;;;;9.60;99.90;;;;;;6185628;23;19955;-86
2021/10/27 04:43:09;;;;;;;;;;;9.60;99.90;;;;;;6184887;23;20540;-86
2021/10/27 04:45:35;;;;;;;;;;;9.60;99.90;;;;;;6185278;23;19900;-86
2021/10/27 04:48:00;;;;;;;;;;;9.60;99.90;;;;;;6185901;23;20319;-87
2021/10/27 04:50:26;;;;;;;;;;;9.60;99.90;;;;;;6158116;23;19908;-86
2021/10/27 04:52:51;;;;;;;;;;;9.60;99.90;;;;;;6185350;23;19931;-86
2021/10/27 04:55:17;;;;;;;;;;;9.60;99.90;;;;;;6185183;23;19900;-86
2021/10/27 04:57:42;;;;;;;;;;;9.60;99.90;;;;;;6185210;23;19901;-87
2021/10/27 05:00:08;;;;;;;;;;;9.60;99.90;;;;;;6184815;23;19900;-86
2021/10/27 05:02:34;;;;;;;;;;;9.50;99.90;;;;;;6184753;23;19931;-86
2021/10/27 05:04:59;;;;;;;;;;;9.50;99.90;;;;;;6184310;23;19986;-87
2021/10/27 05:07:25;;;;;;;;;;;9.60;99.90;;;;;;6184001;23;19931;-86
2021/10/27 05:09:51;;;;;;;;;;;9.50;99.90;;;;;;6183986;23;19908;-86
2021/10/27 05:12:16;;;;;;;;;;;9.50;99.90;;;;;;6183408;23;19904;-86
2021/10/27 05:14:42;;;;;;;;;;;9.50;99.90;;;;;;6183743;23;19947;-86
2021/10/27 05:17:12;;;;;;;;;;;9.50;99.90;;;;;;6184319;23;20329;-86
2021/10/27 05:19:39;;;;;;;;;;;9.50;99.90;;;;;;6158464;23;19982;-86
2021/10/27 05:22:05;;;;;;;;;;;9.40;99.90;;;;;;6184560;23;19908;-86
2021/10/27 05:24:30;;;;;;;;;;;9.40;99.90;;;;;;6184449;23;19900;-86
2021/10/27 05:26:56;;;;;;;;;;;9.40;99.90;;;;;;6184455;23;20044;-87
2021/10/27 05:29:22;;;;;;;;;;;9.40;99.90;;;;;;6160556;23;19995;-87
2021/10/27 05:31:48;;;;;;;;;;;9.40;99.90;;;;;;6186338;23;19904;-86
2021/10/27 05:34:13;;;;;;;;;;;9.40;99.90;;;;;;6184130;23;19940;-86
2021/10/27 05:36:39;;;;;;;;;;;9.30;99.90;;;;;;6183638;23;19978;-87
2021/10/27 05:39:05;;;;;;;;;;;9.30;99.90;;;;;;6157339;23;19947;-86
2021/10/27 05:41:31;;;;;;;;;;;9.30;99.90;;;;;;6157359;23;20330;-86
2021/10/27 05:43:57;;;;;;;;;;;9.30;99.90;;;;;;6183111;23;19900;-86
2021/10/27 05:46:23;;;;;;;;;;;9.20;99.90;;;;;;6183274;23;20289;-86
2021/10/27 05:48:58;;;;;;;;;;;9.20;99.90;;;;;;6157357;23;19947;-86
2021/10/27 05:51:37;;;;;;;;;;;9.30;99.90;;;;;;6183697;23;20289;-86
2021/10/27 05:56:46;;;;;;;;;;;9.30;99.90;;;;;;6191278;23;19919;-87
2021/10/27 05:59:12;;;;;;;;;;;9.30;99.90;;;;;;6185647;23;19931;-86
2021/10/27 06:01:37;;;;;;;;;;;9.30;99.90;;;;;;6157771;23;19907;-86
2021/10/27 06:04:03;;;;;;;;;;;9.30;99.90;;;;;;6184578;23;20211;-86
2021/10/27 06:06:29;;;;;;;;;;;9.30;99.90;;;;;;6184758;23;20376;-86
2021/10/27 06:08:57;;;;;;;;;;;9.30;99.90;;;;;;6184375;23;19973;-86
2021/10/27 06:11:22;;;;;;;;;;;9.30;99.90;;;;;;6183850;23;19904;-86
2021/10/27 06:13:48;;;;;;;;;;;9.30;99.90;;;;;;6184047;23;20284;-86
2021/10/27 06:16:14;;;;;;;;;;;9.20;99.90;;;;;;6184143;23;19978;-87
2021/10/27 06:18:40;;;;;;;;;;;9.20;99.90;;;;;;6156919;23;19900;-87
2021/10/27 06:21:06;;;;;;;;;;;9.20;99.90;;;;;;6183482;23;20022;-87
2021/10/27 06:23:32;;;;;;;;;;;9.20;99.90;;;;;;6179759;23;19907;-87
2021/10/27 06:25:58;;;;;;;;;;;9.20;99.90;;;;;;6158404;23;19912;-88
2021/10/27 06:28:27;;;;;;;;;;;9.10;99.90;;;;;;6181888;23;19908;-88
2021/10/27 06:35:45;;;;;;;;;;;9.10;99.90;;;;;;6182920;23;20214;-88
2021/10/27 06:46:38;;;;;;;;;;;9.20;99.90;;;;;;6183345;23;19966;-88
2021/10/27 06:49:04;;;;;;;;;;;9.20;99.90;;;;;;6183261;23;19919;-87
2021/10/27 06:51:29;;;;;;;;;;;9.20;99.90;;;;;;6183218;23;19907;-87
2021/10/27 06:53:55;;;;;;;;;;;9.20;99.90;;;;;;6156475;23;19900;-87
2021/10/27 06:56:22;;;;;;;;;;;9.20;99.90;;;;;;6183104;23;19911;-88
2021/10/27 07:17:14;;;;;;;;;;;9.30;99.90;;;;;;6182987;23;19989;-88
2021/10/27 07:19:40;;;;;;;;;;;9.30;99.90;;;;;;6182753;23;19939;-87
2021/10/27 07:22:06;;;;;;;;;;;9.30;99.90;;;;;;6156297;23;19986;-88
2021/10/27 07:24:31;;;;;;;;;;;9.40;99.90;;;;;;6156532;23;19936;-89
2021/10/27 07:27:01;;;;;;;;;;;9.40;99.90;;;;;;6183425;23;20253;-88
2021/10/27 07:29:29;;;;;;;;;;;9.40;99.90;;;;;;6182582;23;19915;-89
2021/10/27 07:31:56;;;;;;;;;;;9.50;99.90;;;;;;6182433;23;19900;-87
2021/10/27 07:34:30;;;;;;;;;;;9.50;99.90;;;;;;6183096;23;19935;-87
2021/10/27 07:42:17;;;;;;;;;;;9.70;99.90;;;;;;6183736;23;20088;-88
2021/10/27 07:44:44;;;;;;;;;;;9.80;99.90;;;;;;6183415;23;20096;-88
2021/10/27 07:47:10;;;;;;;;;;;9.80;99.90;;;;;;6183212;23;19900;-88
2021/10/27 07:49:35;;;;;;;;;;;9.90;99.90;;;;;;6158361;23;20381;-87
2021/10/27 07:52:01;;;;;;;;;;;9.90;99.90;;;;;;6185339;23;19900;-88
2021/10/27 07:54:27;;;;;;;;;;;10.00;99.90;;;;;;6158760;23;19935;-87
2021/10/27 07:56:52;;;;;;;;;;;10.10;99.90;;;;;;6158463;23;19951;-88
2021/10/27 07:59:20;;;;;;;;;;;10.20;99.90;;;;;;6184669;23;19901;-88
2021/10/27 08:01:46;;;;;;;;;;;10.20;99.90;;;;;;6184904;23;19931;-87
2021/10/27 08:04:11;;;;;;;;;;;10.30;99.90;;;;;;6184669;23;19900;-88
2021/10/27 08:06:37;;;;;;;;;;;10.40;99.90;;;;;;6184116;23;19906;-88
2021/10/27 08:09:03;;;;;;;;;;;10.60;99.90;;;;;;6184538;23;19912;-88
2021/10/27 08:11:29;;;;;;;;;;;10.60;99.90;;;;;;6184896;23;19927;-88
2021/10/27 08:13:55;;;;;;;;;;;10.80;99.90;;;;;;6184384;23;19959;-88
2021/10/27 08:16:21;;;;;;;;;;;10.80;99.90;;;;;;6184999;23;20325;-87
2021/10/27 08:18:46;;;;;;;;;;;10.90;99.90;;;;;;6158175;23;19931;-87
2021/10/27 08:21:12;;;;;;;;;;;11.00;99.90;;;;;;6184398;23;19946;-88
2021/10/27 08:23:42;;;;;;;;;;;11.10;99.90;;;;;;6184394;23;19901;-88
2021/10/27 08:26:10;;;;;;;;;;;11.10;99.90;;;;;;6157636;23;20349;-88
2021/10/27 08:28:41;;;;;;;;;;;11.20;99.90;;;;;;6184149;23;19911;-88
2021/10/27 08:36:16;;;;;;;;;;;11.50;99.90;;;;;;6184832;23;19912;-87
2021/10/27 08:38:42;;;;;;;;;;;11.60;99.90;;;;;;6157470;23;19911;-88
2021/10/27 08:41:07;;;;;;;;;;;11.60;99.90;;;;;;6157782;23;19916;-88
2021/10/27 08:43:33;;;;;;;;;;;11.70;99.90;;;;;;6158161;23;19900;-88
2021/10/27 08:46:01;;;;;;;;;;;11.80;99.90;;;;;;6184893;23;19901;-88
2021/10/27 08:48:27;;;;;;;;;;;11.80;99.90;;;;;;6184493;23;19928;-88
2021/10/27 08:50:53;;;;;;;;;;;11.90;99.90;;;;;;6185002;23;20237;-88
2021/10/27 08:53:21;;;;;;;;;;;12.10;99.90;;;;;;6184903;23;19943;-87
2021/10/27 08:55:49;;;;;;;;;;;12.10;99.90;;;;;;6158439;23;19923;-88
2021/10/27 08:58:21;;;;;;;;;;;12.20;99.90;;;;;;6184562;23;19907;-88
2021/10/27 09:03:28;;;;;;;;;;;12.40;99.90;;;;;;6184465;23;20270;-88
2021/10/27 09:08:42;;;;;;;;;;;12.60;99.90;;;;;;6185002;23;19900;-88
2021/10/27 09:17:06;;;;;;;;;;;13.00;99.90;;;;;;6183851;23;19920;-88
2021/10/27 09:36:23;;;;;;;;;;;13.80;99.90;;;;;;6184575;23;20317;-88
2021/10/27 09:44:43;;;;;;;;;;;14.10;99.90;;;;;;6183507;23;19923;-88
2021/10/27 10:06:19;;;;;;;;;;;14.70;99.90;;;;;;6184349;23;19907;-89
2021/10/27 10:08:44;;;;;;;;;;;14.80;99.90;;;;;;6184257;23;19951;-88
2021/10/27 10:11:11;;;;;;;;;;;14.90;99.90;;;;;;6157710;23;19904;-87
2021/10/27 10:13:38;;;;;;;;;;;14.90;99.90;;;;;;6183359;23;19908;-88
2021/10/27 10:16:03;;;;;;;;;;;15.00;99.90;;;;;;6183198;23;19910;-88
2021/10/27 10:18:29;;;;;;;;;;;15.10;99.90;;;;;;6183516;23;19932;-88
2021/10/27 10:20:55;;;;;;;;;;;15.20;99.90;;;;;;6181879;23;20241;-88
2021/10/27 10:23:21;;;;;;;;;;;15.20;99.90;;;;;;6183772;23;19900;-88
2021/10/27 10:25:57;;;;;;;;;;;15.20;99.90;;;;;;6183101;23;19904;-88
2021/10/27 10:28:27;;;;;;;;;;;15.30;99.90;;;;;;6182771;23;20288;-87
2021/10/27 10:31:07;;;;;;;;;;;15.40;99.90;;;;;;6183245;23;19984;-87
2021/10/27 10:33:41;;;;;;;;;;;15.50;99.90;;;;;;6182005;23;19950;-86
2021/10/27 10:36:26;;;;;;;;;;;15.60;99.90;;;;;;6182841;23;20018;-86
2021/10/27 10:41:44;;;;;;;;;;;15.70;99.90;;;;;;6183551;23;19900;-86
2021/10/27 10:44:34;;;;;;;;;;;15.80;99.90;;;;;;6183219;23;19900;-87
2021/10/27 10:56:08;;;;;;;;;;;16.10;99.90;;;;;;6183904;23;19923;-85
2021/10/27 10:58:58;;;;;;;;;;;16.20;99.90;;;;;;6183239;23;19961;-86
2021/10/27 11:24:10;;;;;;;;;;;16.90;99.90;;;;;;6183295;23;20289;-88
2021/10/27 11:27:02;;;;;;;;;;;17.00;99.90;;;;;;6183324;23;20020;-89
2021/10/27 11:38:06;;;;;;;;;;;17.40;99.90;;;;;;6184061;23;20605;-89
2021/10/27 11:43:16;;;;;;;;;;;17.60;99.90;;;;;;6183650;23;19904;-88
2021/10/27 11:48:26;;;;;;;;;;;17.70;99.90;;;;;;6183910;23;19979;-89
2021/10/27 11:50:51;;;;;;;;;;;17.70;99.90;;;;;;6183147;23;19979;-89
2021/10/27 11:53:19;;;;;;;;;;;17.70;99.90;;;;;;6183451;23;19927;-89
2021/10/27 11:55:44;;;;;;;;;;;17.70;99.90;;;;;;6183484;23;20281;-89
2021/10/27 11:58:10;;;;;;;;;;;17.80;99.90;;;;;;6183050;23;19900;-89
2021/10/27 12:00:38;;;;;;;;;;;17.80;99.90;;;;;;6183211;23;19923;-89
2021/10/27 12:05:46;;;;;;;;;;;18.10;99.90;;;;;;6183675;23;19979;-88
2021/10/27 12:11:31;;;;;;;;;;;18.10;99.90;;;;;;6183271;23;19915;-89
2021/10/27 12:13:43;;;;;;;;;;;18.20;99.90;;;;;;6171443;23;19901;-88
2021/10/27 12:18:55;;;;;;;;;;;18.20;99.90;;;;;;6182894;23;19901;-89
2021/10/27 12:21:21;;;;;;;;;;;18.20;99.90;;;;;;6182398;23;19901;-88
2021/10/27 12:23:50;;;;;;;;;;;18.20;99.90;;;;;;6182581;23;19926;-88
2021/10/27 12:26:17;;;;;;;;;;;18.10;99.90;;;;;;6182497;23;19951;-88
2021/10/27 12:28:43;;;;;;;;;;;18.20;99.90;;;;;;6182179;23;19908;-89
2021/10/27 12:31:15;;;;;;;;;;;18.30;99.90;;;;;;6182873;23;19900;-89
2021/10/27 12:33:42;;;;;;;;;;;18.40;99.90;;;;;;6180931;23;19923;-88
2021/10/27 12:36:18;;;;;;;;;;;18.50;99.90;;;;;;6182945;23;20305;-89
2021/10/27 12:39:03;;;;;;;;;;;18.40;99.90;;;;;;6184349;23;19955;-88
2021/10/27 12:41:28;;;;;;;;;;;18.50;99.90;;;;;;6184655;23;19927;-89
2021/10/27 12:43:54;;;;;;;;;;;18.40;99.90;;;;;;6184433;23;19900;-88
2021/10/27 12:46:20;;;;;;;;;;;18.30;99.90;;;;;;6184466;23;19904;-89
2021/10/27 12:48:46;;;;;;;;;;;18.30;99.90;;;;;;6184264;23;19904;-89
2021/10/27 12:51:13;;;;;;;;;;;18.40;99.90;;;;;;6183011;23;19900;-89
2021/10/27 12:53:43;;;;;;;;;;;18.40;99.90;;;;;;6184336;23;19900;-89
2021/10/27 12:56:08;;;;;;;;;;;18.50;99.90;;;;;;6182454;23;20026;-89
2021/10/27 12:58:38;;;;;;;;;;;18.70;99.90;;;;;;6184165;23;19931;-88
2021/10/27 13:01:15;;;;;;;;;;;18.70;99.90;;;;;;6184123;23;19904;-88
2021/10/27 13:17:41;;;;;;;;;;;18.90;99.90;;;;;;6184047;23;19904;-89
2021/10/27 13:30:07;;;;;;;;;;;19.00;99.90;;;;;;6185245;23;19915;-89
2021/10/27 13:32:37;;;;;;;;;;;19.00;99.90;;;;;;6185267;23;19901;-89
2021/10/27 13:35:04;;;;;;;;;;;18.90;99.90;;;;;;6185045;23;20242;-88
2021/10/27 13:37:30;;;;;;;;;;;19.00;99.90;;;;;;6184948;23;19907;-89
2021/10/27 13:39:56;;;;;;;;;;;19.00;99.90;;;;;;6184836;23;20277;-89
2021/10/27 14:09:12;;;;;;;;;;;19.50;99.90;;;;;;6183926;23;20071;-88
2021/10/27 14:12:01;;;;;;;;;;;19.60;99.90;;;;;;6184391;23;19983;-88
2021/10/27 15:25:38;;;;;;;;;;;19.60;99.90;;;;;;6184256;23;19900;-89
2021/10/27 15:36:44;;;;;;;;;;;18.90;99.90;;;;;;6183348;23;19900;-89
2021/10/27 15:44:23;;;;;;;;;;;19.20;99.90;;;;;;6183827;23;19900;-89
2021/10/27 15:52:22;;;;;;;;;;;21.00;97.80;;;;;;6183595;23;20344;-89
2021/10/27 15:54:48;;;;;;;;;;;21.60;97.00;;;;;;6183604;23;19980;-89
2021/10/27 15:57:14;;;;;;;;;;;23.20;94.60;;;;;;6183554;23;20234;-90
2021/10/27 15:59:41;;;;;;;;;;;24.80;91.50;;;;;;6182677;23;19991;-89
2021/10/27 16:02:07;;;;;;;;;;;26.70;88.40;;;;;;6182801;23;19931;-89
2021/10/27 16:04:33;;;;;;;;;;;28.30;82.30;;;;;;6182881;23;20308;-87
2021/10/27 16:06:59;;;;;;;;;;;29.10;78.30;;;;;;6182843;23;20371;-87
2021/10/27 16:09:30;;;;;;;;;;;29.50;74.90;;;;;;6183234;23;19909;-88
2021/10/27 16:11:55;;;;;;;;;;;29.20;72.90;;;;;;6184717;23;19900;-88
2021/10/27 16:14:23;;;;;;;;;;;28.10;74.50;;;;;;6184496;23;19907;-89
2021/10/27 16:16:49;;;;;;;;;;;27.10;75.30;;;;;;6191749;23;19905;-93
2021/10/27 16:19:15;;;;;;;;;;;25.70;77.00;;;;;;6185398;23;19932;-93
2021/10/27 16:21:40;;;;;;;;;;;24.10;80.70;;;;;;6185325;23;19979;-93
2021/10/27 16:24:08;;;;;;;;;;;22.60;85.10;;;;;;6186685;23;20413;-88
2021/10/27 16:26:34;;;;;;;;;;;21.40;88.50;;;;;;6184216;23;19912;-87
2021/10/27 16:29:00;;;;;;;;;;;20.40;91.10;;;;;;6185787;23;19962;-87
2021/10/27 16:31:25;;;;;;;;;;;19.60;92.10;;;;;;6184500;23;20321;-87
2021/10/27 16:33:51;;;;;;;;;;;19.00;93.90;;;;;;6183512;23;19901;-87
2021/10/27 16:36:16;;;;;;;;;;;18.40;95.80;;;;;;6185243;23;20319;-88
2021/10/27 16:38:42;;;;;;;;;;;18.10;97.10;;;;;;6184902;23;19900;-88
2021/10/27 16:41:09;;;;;;;;;;;17.70;98.20;;;;;;6184869;23;19911;-88
2021/10/27 16:43:35;;;;;;;;;;;17.50;99.90;;;;;;6182966;23;20579;-88
2021/10/27 16:46:01;;;;;;;;;;;17.20;99.90;;;;;;6184428;23;19900;-88
2021/10/27 16:48:27;;;;;;;;;;;17.00;99.90;;;;;;6182681;23;19904;-88
2021/10/27 16:50:53;;;;;;;;;;;16.80;99.90;;;;;;6184459;23;19912;-88
2021/10/27 16:53:20;;;;;;;;;;;16.60;99.90;;;;;;6183042;23;20281;-88
2021/10/27 16:55:46;;;;;;;;;;;16.40;99.90;;;;;;6184529;23;19954;-88
2021/10/27 16:58:13;;;;;;;;;;;16.20;99.90;;;;;;6184369;23;19974;-87
2021/10/27 17:00:39;;;;;;;;;;;16.00;99.90;;;;;;6184779;23;19900;-88
2021/10/27 17:03:05;;;;;;;;;;;15.90;99.90;;;;;;6184729;23;19907;-88
2021/10/27 17:05:30;;;;;;;;;;;15.70;99.90;;;;;;6185346;23;19900;-88
2021/10/27 17:07:56;;;;;;;;;;;15.60;99.90;;;;;;6184817;23;20081;-88
2021/10/27 17:10:22;;;;;;;;;;;15.40;99.90;;;;;;6184805;23;20429;-88
2021/10/27 17:12:47;;;;;;;;;;;15.30;99.90;;;;;;6194613;23;19924;-88
2021/10/27 17:15:13;;;;;;;;;;;15.10;99.90;;;;;;6194771;23;19902;-88
2021/10/27 17:17:41;;;;;;;;;;;15.00;99.90;;;;;;6194885;23;19896;-88
2021/10/27 17:20:07;;;;;;;;;;;14.90;99.90;;;;;;6190103;23;19911;-89
2021/10/27 17:22:38;;;;;;;;;;;14.90;99.90;;;;;;6183531;23;19971;-88
2021/10/27 17:25:04;;;;;;;;;;;14.70;99.90;;;;;;6182377;23;19900;-88
2021/10/27 17:27:30;;;;;;;;;;;14.60;99.90;;;;;;6186672;23;20284;-88
2021/10/27 17:29:55;;;;;;;;;;;14.50;99.90;;;;;;6184265;23;19912;-88
2021/10/27 17:32:23;;;;;;;;;;;14.40;99.90;;;;;;6182962;23;19908;-88
2021/10/27 17:34:49;;;;;;;;;;;14.40;99.90;;;;;;6184689;23;19927;-88
2021/10/27 17:37:15;;;;;;;;;;;14.20;99.90;;;;;;6184843;23;19936;-88
2021/10/27 17:39:42;;;;;;;;;;;14.20;99.90;;;;;;6182549;23;19900;-89
2021/10/27 17:42:10;;;;;;;;;;;14.10;99.90;;;;;;6184701;23;19954;-88
2021/10/27 17:44:36;;;;;;;;;;;14.00;99.90;;;;;;6184152;23;20274;-87
2021/10/27 17:47:08;;;;;;;;;;;13.90;99.90;;;;;;6184939;23;19983;-88
2021/10/27 18:00:02;;;;;;;;;;;13.70;99.90;;;;;;6182873;23;19911;-87
2021/10/27 18:02:28;;;;;;;;;;;13.70;99.90;;;;;;6182375;23;20028;-87
2021/10/27 18:04:54;;;;;;;;;;;13.60;99.90;;;;;;6182816;23;20130;-87
2021/10/27 18:07:23;;;;;;;;;;;13.60;99.90;;;;;;6184404;23;19970;-87
2021/10/27 18:09:49;;;;;;;;;;;13.50;99.90;;;;;;6184229;23;19908;-87
2021/10/27 18:12:20;;;;;;;;;;;13.40;99.90;;;;;;6184306;23;20321;-87
2021/10/27 18:14:45;;;;;;;;;;;13.40;99.90;;;;;;6183391;23;19953;-87
2021/10/27 18:17:13;;;;;;;;;;;13.40;99.90;;;;;;6182363;23;19900;-87
2021/10/27 18:19:50;;;;;;;;;;;13.40;99.90;;;;;;6184268;23;20050;-87
2021/10/27 18:40:51;;;;;;;;;;;13.10;99.90;;;;;;6183729;23;20240;-88
2021/10/27 18:43:20;;;;;;;;;;;13.00;99.90;;;;;;6183992;23;20325;-87
2021/10/27 18:45:48;;;;;;;;;;;13.00;99.90;;;;;;6183671;23;19900;-88
2021/10/27 18:48:14;;;;;;;;;;;12.90;99.90;;;;;;6182380;23;19907;-87
2021/10/27 18:50:46;;;;;;;;;;;12.90;99.90;;;;;;6182166;23;19908;-87
2021/10/27 18:54:04;;;;;;;;;;;12.80;99.90;;;;;;6182904;23;19908;-87
2021/10/27 18:58:53;;;;;;;;;;;12.60;99.90;;;;;;6184219;23;19900;-87
2021/10/27 19:01:29;;;;;;;;;;;12.60;99.90;;;;;;6183875;23;19900;-87
2021/10/27 19:12:22;;;;;;;;;;;12.40;99.90;;;;;;6184161;23;20233;-87
2021/10/27 19:17:24;;;;;;;;;;;12.30;99.90;;;;;;6184066;23;19909;-87
2021/10/27 19:19:50;;;;;;;;;;;12.30;99.90;;;;;;6191313;23;19897;-88
2021/10/27 19:22:16;;;;;;;;;;;12.20;99.90;;;;;;6188002;23;19984;-87
2021/10/27 19:27:32;;;;;;;;;;;12.20;99.90;;;;;;6187241;23;19919;-87
2021/10/27 20:07:52;;;;;;;;;;;11.80;99.90;;;;;;6194320;23;20231;-87
2021/10/27 20:13:48;;;;;;;;;;;11.80;99.90;;;;;;6196050;23;19943;-87
2021/10/27 20:26:37;;;;;;;;;;;11.60;99.90;;;;;;6192995;23;20092;-87
2021/10/27 20:53:37;;;;;;;;;;;11.30;99.90;;;;;;6202269;23;19919;-87
2021/10/27 20:56:07;;;;;;;;;;;11.30;99.90;;;;;;6200557;23;19919;-87
2021/10/27 21:01:42;;;;;;;;;;;11.20;99.90;;;;;;6150851;23;19903;-88
2021/10/27 21:14:54;;;;;;;;;;;11.10;99.90;;;;;;6169851;23;19903;-87
2021/10/27 21:17:20;;;;;;;;;;;11.00;99.90;;;;;;6203336;23;19989;-87
2021/10/27 21:19:45;;;;;;;;;;;11.00;99.90;;;;;;6194977;23;19896;-87
2021/10/27 21:22:12;;;;;;;;;;;11.00;99.90;;;;;;6195552;23;19951;-87
2021/10/27 21:24:44;;;;;;;;;;;10.90;99.90;;;;;;6194905;23;19903;-87
2021/10/27 21:27:18;;;;;;;;;;;10.90;99.90;;;;;;6193457;23;19915;-87
2021/10/27 21:30:53;;;;;;;;;;;10.90;99.90;;;;;;6194949;23;19904;-87
2021/10/27 21:43:29;;;;;;;;;;;10.80;99.90;;;;;;6195401;23;20028;-88